Time;durP1;ratioP1;P1;durP2;ratioP2;P2;SDS_P1;SDS_P2;PMS_P1;PMS_P2;Temp;Humidity;BMP_temperature;BMP_pressure;BME280_temperature;BME280_humidity;BME280_pressure;Samples;Min_cycle;Max_cycle;Signal;HPM_P1;HPM_P2
2022/03/30 00:00:44;;;;;;;44.17;12.35;;;;;;;;;;5048670;28;20021;-71
2022/03/30 00:03:10;;;;;;;34.13;11.65;;;;;;;;;;5034114;28;20091;-70
2022/03/30 00:05:36;;;;;;;34.67;12.30;;;;;;;;;;5027065;28;20140;-71
2022/03/30 00:08:03;;;;;;;38.65;11.68;;;;;;;;;;5028877;28;20500;-70
2022/03/30 00:10:29;;;;;;;35.05;12.10;;;;;;;;;;5028685;28;20103;-70
2022/03/30 00:12:56;;;;;;;28.30;11.57;;;;;;;;;;5028695;28;20013;-71
2022/03/30 00:15:23;;;;;;;28.20;11.73;;;;;;;;;;5028241;28;20029;-70
2022/03/30 00:17:49;;;;;;;32.33;12.73;;;;;;;;;;5028527;28;20683;-70
2022/03/30 00:20:15;;;;;;;30.05;10.95;;;;;;;;;;5027393;28;20543;-71
2022/03/30 00:22:41;;;;;;;37.33;12.18;;;;;;;;;;5028251;28;20025;-71
2022/03/30 00:25:09;;;;;;;36.85;11.88;;;;;;;;;;5028418;28;20030;-70
2022/03/30 00:27:35;;;;;;;29.00;11.27;;;;;;;;;;5028226;28;20056;-70
2022/03/30 00:30:02;;;;;;;38.00;11.02;;;;;;;;;;5026933;28;20100;-70
2022/03/30 00:32:28;;;;;;;40.28;11.38;;;;;;;;;;5028464;28;20021;-70
2022/03/30 00:34:54;;;;;;;34.47;11.02;;;;;;;;;;5028196;28;20029;-70
2022/03/30 00:37:20;;;;;;;36.78;11.57;;;;;;;;;;5027911;28;20022;-71
2022/03/30 00:39:46;;;;;;;31.70;12.00;;;;;;;;;;5028064;28;20091;-71
2022/03/30 00:42:17;;;;;;;41.35;12.13;;;;;;;;;;5026916;28;20025;-70
2022/03/30 00:44:44;;;;;;;35.97;11.88;;;;;;;;;;5028206;28;20029;-70
2022/03/30 00:47:17;;;;;;;37.55;10.30;;;;;;;;;;5027882;28;20100;-70
2022/03/30 00:49:43;;;;;;;30.15;10.35;;;;;;;;;;5027651;28;20026;-71
2022/03/30 00:52:10;;;;;;;27.00;10.95;;;;;;;;;;5027745;28;20030;-72
2022/03/30 00:54:37;;;;;;;28.58;10.93;;;;;;;;;;5026507;28;20069;-70
2022/03/30 00:57:06;;;;;;;37.00;10.85;;;;;;;;;;5027686;28;20026;-70
2022/03/30 00:59:32;;;;;;;35.28;10.43;;;;;;;;;;5027837;28;20032;-70
2022/03/30 01:01:59;;;;;;;42.88;10.65;;;;;;;;;;5026034;28;20025;-70
2022/03/30 01:04:27;;;;;;;46.75;12.98;;;;;;;;;;5026824;28;20032;-72
2022/03/30 01:06:53;;;;;;;36.42;10.30;;;;;;;;;;5027530;28;20059;-72
2022/03/30 01:09:20;;;;;;;33.47;10.77;;;;;;;;;;5027442;28;20045;-70
2022/03/30 01:11:47;;;;;;;32.78;9.30;;;;;;;;;;5025923;28;20026;-71
2022/03/30 01:14:14;;;;;;;39.85;10.07;;;;;;;;;;5027833;28;20615;-70
2022/03/30 01:16:41;;;;;;;23.10;8.80;;;;;;;;;;5027377;28;20071;-70
2022/03/30 01:19:08;;;;;;;49.67;10.18;;;;;;;;;;5027490;28;20030;-70
2022/03/30 01:21:35;;;;;;;37.83;9.50;;;;;;;;;;5027197;28;20053;-70
2022/03/30 01:24:02;;;;;;;37.30;9.77;;;;;;;;;;5025811;28;20021;-70
2022/03/30 01:26:28;;;;;;;35.17;8.80;;;;;;;;;;5027328;28;20057;-70
2022/03/30 01:28:54;;;;;;;34.72;9.05;;;;;;;;;;5027431;28;20029;-70
2022/03/30 01:34:06;;;;;;;27.92;8.63;;;;;;;;;;5027815;28;20086;-70
2022/03/30 01:36:32;;;;;;;39.90;9.40;;;;;;;;;;5027420;28;20030;-71
2022/03/30 01:38:58;;;;;;;36.30;8.70;;;;;;;;;;5025784;28;20049;-70
2022/03/30 01:41:24;;;;;;;33.72;8.00;;;;;;;;;;5027053;28;20051;-70
2022/03/30 01:43:51;;;;;;;39.85;9.43;;;;;;;;;;5027454;28;20084;-70
2022/03/30 01:46:17;;;;;;;33.85;8.65;;;;;;;;;;5026981;28;20441;-70
2022/03/30 01:48:43;;;;;;;36.83;9.07;;;;;;;;;;5026806;28;20033;-70
2022/03/30 01:51:09;;;;;;;24.58;8.27;;;;;;;;;;5025867;28;20052;-70
2022/03/30 01:53:36;;;;;;;40.75;9.85;;;;;;;;;;5027060;28;20030;-70
2022/03/30 01:56:02;;;;;;;41.50;9.85;;;;;;;;;;5027091;28;20750;-71
2022/03/30 01:58:28;;;;;;;28.92;8.02;;;;;;;;;;5026609;28;20430;-70
2022/03/30 02:00:54;;;;;;;41.22;9.45;;;;;;;;;;5026804;28;20022;-71
2022/03/30 02:03:21;;;;;;;38.53;8.90;;;;;;;;;;5025548;28;20067;-70
2022/03/30 02:05:47;;;;;;;38.75;9.05;;;;;;;;;;5027125;28;20045;-70
2022/03/30 02:08:13;;;;;;;35.58;9.45;;;;;;;;;;5026683;28;20543;-71
2022/03/30 02:10:39;;;;;;;36.22;8.23;;;;;;;;;;5026780;28;20030;-71
2022/03/30 02:13:06;;;;;;;33.53;8.85;;;;;;;;;;5026633;28;20028;-71
2022/03/30 02:15:32;;;;;;;36.28;8.55;;;;;;;;;;5027796;28;20025;-71
2022/03/30 02:17:59;;;;;;;33.85;7.53;;;;;;;;;;5030853;28;20039;-70
2022/03/30 02:20:25;;;;;;;41.10;8.48;;;;;;;;;;5031134;28;20462;-70
2022/03/30 02:22:51;;;;;;;48.33;10.85;;;;;;;;;;5030784;28;20504;-70
2022/03/30 02:25:18;;;;;;;41.92;8.82;;;;;;;;;;5029233;28;20417;-71
2022/03/30 02:27:44;;;;;;;56.65;10.70;;;;;;;;;;5030330;28;20104;-70
2022/03/30 02:30:10;;;;;;;45.53;10.40;;;;;;;;;;5030596;28;20029;-70
2022/03/30 02:32:37;;;;;;;45.00;9.40;;;;;;;;;;5030677;28;20017;-70
2022/03/30 02:35:04;;;;;;;43.58;9.25;;;;;;;;;;5029452;28;20058;-70
2022/03/30 02:37:30;;;;;;;38.30;9.05;;;;;;;;;;5030372;28;20037;-70
2022/03/30 02:39:56;;;;;;;40.70;9.10;;;;;;;;;;5030423;28;20029;-70
2022/03/30 02:42:22;;;;;;;47.53;11.20;;;;;;;;;;5030141;28;20492;-70
2022/03/30 02:44:49;;;;;;;29.02;8.93;;;;;;;;;;5028955;28;20367;-70
2022/03/30 02:47:15;;;;;;;42.03;9.70;;;;;;;;;;5030353;28;20386;-71
2022/03/30 02:49:41;;;;;;;35.80;8.88;;;;;;;;;;5030307;28;20465;-70
2022/03/30 02:52:07;;;;;;;39.65;10.30;;;;;;;;;;5030456;28;20025;-70
2022/03/30 02:54:34;;;;;;;37.67;9.93;;;;;;;;;;5030007;28;20032;-70
2022/03/30 02:57:00;;;;;;;35.47;9.98;;;;;;;;;;5028401;28;20060;-70
2022/03/30 02:59:26;;;;;;;38.78;9.13;;;;;;;;;;5030417;28;20056;-71
2022/03/30 03:01:54;;;;;;;33.55;10.13;;;;;;;;;;5030114;28;20017;-72
2022/03/30 03:04:21;;;;;;;38.70;9.90;;;;;;;;;;5030286;28;20037;-71
2022/03/30 03:06:47;;;;;;;32.72;10.48;;;;;;;;;;5029697;28;20571;-71
2022/03/30 03:09:13;;;;;;;43.22;11.20;;;;;;;;;;5029697;28;20516;-70
2022/03/30 03:11:39;;;;;;;40.78;10.70;;;;;;;;;;5028253;28;20017;-71
2022/03/30 03:14:07;;;;;;;34.33;8.75;;;;;;;;;;5029780;28;20033;-70
2022/03/30 03:16:34;;;;;;;42.17;10.98;;;;;;;;;;5029531;28;20083;-70
2022/03/30 03:19:01;;;;;;;47.15;9.77;;;;;;;;;;5024826;28;20040;-70
2022/03/30 03:21:27;;;;;;;40.65;9.75;;;;;;;;;;5025085;28;20033;-71
2022/03/30 03:23:53;;;;;;;41.53;9.75;;;;;;;;;;5025157;28;20067;-70
2022/03/30 03:26:19;;;;;;;40.22;9.70;;;;;;;;;;5022850;28;20175;-71
2022/03/30 03:28:45;;;;;;;30.08;7.75;;;;;;;;;;5025122;28;20608;-70
2022/03/30 03:31:11;;;;;;;32.47;8.15;;;;;;;;;;5024868;28;20030;-71
2022/03/30 03:33:37;;;;;;;36.60;9.88;;;;;;;;;;5024518;28;20036;-70
2022/03/30 03:36:05;;;;;;;42.95;8.38;;;;;;;;;;5006905;28;20128;-70
2022/03/30 03:38:31;;;;;;;36.55;8.95;;;;;;;;;;5023091;28;20057;-70
2022/03/30 03:40:57;;;;;;;43.35;10.27;;;;;;;;;;5024688;28;20107;-70
2022/03/30 03:43:23;;;;;;;41.60;10.88;;;;;;;;;;5024486;28;20025;-70
2022/03/30 03:45:49;;;;;;;42.22;10.88;;;;;;;;;;5024599;28;20026;-71
2022/03/30 03:48:16;;;;;;;30.77;9.95;;;;;;;;;;5024193;28;20029;-71
2022/03/30 03:50:43;;;;;;;40.40;9.73;;;;;;;;;;5024084;28;20140;-71
2022/03/30 03:53:09;;;;;;;39.47;9.07;;;;;;;;;;5022635;28;20018;-71
2022/03/30 03:55:36;;;;;;;40.95;8.43;;;;;;;;;;5024152;28;20029;-71
2022/03/30 03:58:04;;;;;;;44.33;9.30;;;;;;;;;;5024602;28;20044;-71
2022/03/30 04:00:31;;;;;;;36.80;8.13;;;;;;;;;;5024348;28;20025;-71
2022/03/30 04:02:57;;;;;;;43.35;9.00;;;;;;;;;;5024071;28;20034;-71
2022/03/30 04:05:23;;;;;;;50.58;10.15;;;;;;;;;;5022482;28;20041;-70
2022/03/30 04:07:49;;;;;;;42.55;9.70;;;;;;;;;;5024179;28;20028;-70
2022/03/30 04:10:15;;;;;;;52.70;11.52;;;;;;;;;;5024096;28;20036;-71
2022/03/30 04:12:41;;;;;;;51.05;9.60;;;;;;;;;;5024546;28;20032;-70
2022/03/30 04:15:08;;;;;;;50.10;9.52;;;;;;;;;;5024225;28;20610;-70
2022/03/30 04:17:34;;;;;;;45.90;10.27;;;;;;;;;;5023965;28;20026;-71
2022/03/30 04:20:01;;;;;;;51.97;9.60;;;;;;;;;;5023447;28;20127;-70
2022/03/30 04:22:28;;;;;;;45.85;10.98;;;;;;;;;;5023756;28;20040;-71
2022/03/30 04:24:54;;;;;;;34.72;8.15;;;;;;;;;;5023883;28;20096;-71
2022/03/30 04:27:20;;;;;;;44.55;9.10;;;;;;;;;;5023682;28;20025;-71
2022/03/30 04:29:46;;;;;;;54.65;9.48;;;;;;;;;;5023626;28;20067;-70
2022/03/30 04:32:12;;;;;;;49.92;9.50;;;;;;;;;;5022402;28;20018;-70
2022/03/30 04:34:38;;;;;;;45.22;8.20;;;;;;;;;;5006776;28;20108;-71
2022/03/30 04:37:04;;;;;;;48.50;9.45;;;;;;;;;;5023297;28;20036;-71
2022/03/30 04:39:31;;;;;;;44.90;9.50;;;;;;;;;;5022814;28;20477;-70
2022/03/30 04:41:57;;;;;;;50.25;8.20;;;;;;;;;;5022938;28;20493;-71
2022/03/30 04:44:25;;;;;;;48.20;8.35;;;;;;;;;;5022138;28;20048;-71
2022/03/30 04:46:51;;;;;;;46.35;8.90;;;;;;;;;;5023601;28;20028;-73
2022/03/30 04:49:18;;;;;;;52.53;9.20;;;;;;;;;;5023389;28;20040;-70
2022/03/30 04:51:44;;;;;;;50.65;9.68;;;;;;;;;;5023299;28;20072;-71
2022/03/30 04:54:10;;;;;;;55.35;10.98;;;;;;;;;;5021626;28;20026;-70
2022/03/30 04:56:36;;;;;;;64.60;11.02;;;;;;;;;;5023314;28;20021;-70
2022/03/30 04:59:02;;;;;;;53.55;12.25;;;;;;;;;;5023131;28;20474;-71
2022/03/30 05:01:29;;;;;;;51.72;9.95;;;;;;;;;;5023138;28;20508;-71
2022/03/30 05:03:55;;;;;;;43.10;9.23;;;;;;;;;;5022745;28;20481;-71
2022/03/30 05:06:21;;;;;;;49.80;9.43;;;;;;;;;;5020306;28;20329;-70
2022/03/30 05:08:47;;;;;;;44.90;9.27;;;;;;;;;;5021315;28;20171;-71
2022/03/30 05:11:14;;;;;;;65.07;10.43;;;;;;;;;;5021433;28;20029;-71
2022/03/30 05:13:40;;;;;;;44.88;7.70;;;;;;;;;;5020893;28;20041;-70
2022/03/30 05:16:06;;;;;;;39.03;8.45;;;;;;;;;;5020754;28;20091;-70
2022/03/30 05:18:32;;;;;;;51.05;9.65;;;;;;;;;;5019993;28;20030;-70
2022/03/30 05:20:58;;;;;;;55.20;10.23;;;;;;;;;;5021525;28;20032;-70
2022/03/30 05:23:24;;;;;;;57.40;9.93;;;;;;;;;;5022758;28;20473;-70
2022/03/30 05:25:50;;;;;;;55.85;9.25;;;;;;;;;;5022446;28;20426;-70
2022/03/30 05:28:17;;;;;;;40.05;9.23;;;;;;;;;;5022057;28;20091;-70
2022/03/30 05:30:43;;;;;;;52.63;8.73;;;;;;;;;;5021319;28;20060;-70
2022/03/30 05:33:09;;;;;;;54.00;9.15;;;;;;;;;;5022241;28;20526;-71
2022/03/30 05:35:35;;;;;;;41.03;7.75;;;;;;;;;;5022390;28;20036;-70
2022/03/30 05:38:01;;;;;;;52.05;10.32;;;;;;;;;;5022355;28;20057;-70
2022/03/30 05:40:27;;;;;;;33.70;7.55;;;;;;;;;;5022417;28;20593;-70
2022/03/30 05:42:54;;;;;;;41.97;8.90;;;;;;;;;;5020985;28;20029;-70
2022/03/30 05:45:20;;;;;;;43.53;7.82;;;;;;;;;;5022232;28;20532;-70
2022/03/30 05:47:47;;;;;;;44.40;7.70;;;;;;;;;;5020837;28;20033;-70
2022/03/30 05:50:13;;;;;;;42.78;8.02;;;;;;;;;;5022040;28;20044;-70
2022/03/30 05:52:39;;;;;;;33.60;6.57;;;;;;;;;;5022756;28;20017;-71
2022/03/30 05:55:06;;;;;;;36.80;7.55;;;;;;;;;;5022702;28;20030;-71
2022/03/30 05:57:32;;;;;;;40.38;7.30;;;;;;;;;;5020524;28;20052;-70
2022/03/30 05:59:58;;;;;;;43.20;7.78;;;;;;;;;;5021736;28;20028;-70
2022/03/30 06:02:24;;;;;;;43.45;8.70;;;;;;;;;;5021987;28;20043;-70
2022/03/30 06:04:50;;;;;;;45.25;9.05;;;;;;;;;;5020346;28;20403;-70
2022/03/30 06:07:17;;;;;;;28.50;7.47;;;;;;;;;;5022168;28;20041;-71
2022/03/30 06:09:43;;;;;;;38.40;8.93;;;;;;;;;;5022356;28;20037;-70
2022/03/30 06:12:11;;;;;;;33.58;6.90;;;;;;;;;;5021750;28;20025;-70
2022/03/30 06:14:37;;;;;;;48.10;8.90;;;;;;;;;;5020811;28;20061;-70
2022/03/30 06:17:05;;;;;;;35.17;7.93;;;;;;;;;;5021648;28;20492;-70
2022/03/30 06:19:32;;;;;;;37.10;7.40;;;;;;;;;;5021631;28;20489;-70
2022/03/30 06:21:58;;;;;;;44.78;8.00;;;;;;;;;;5021838;28;20596;-74
2022/03/30 06:24:25;;;;;;;36.33;7.93;;;;;;;;;;5021310;28;20025;-70
2022/03/30 06:26:51;;;;;;;31.77;7.13;;;;;;;;;;5020431;28;20546;-70
2022/03/30 06:29:17;;;;;;;31.23;6.65;;;;;;;;;;5021647;28;20040;-71
2022/03/30 06:31:43;;;;;;;38.60;7.28;;;;;;;;;;5021828;28;20489;-70
2022/03/30 06:34:09;;;;;;;37.13;7.15;;;;;;;;;;5022195;28;20462;-70
2022/03/30 06:36:37;;;;;;;40.20;7.65;;;;;;;;;;5021590;28;20067;-70
2022/03/30 06:39:04;;;;;;;40.83;8.35;;;;;;;;;;5020599;28;20021;-70
2022/03/30 06:41:30;;;;;;;35.53;7.28;;;;;;;;;;5022110;28;20053;-70
2022/03/30 06:43:56;;;;;;;52.00;8.52;;;;;;;;;;5021615;28;20039;-70
2022/03/30 06:46:23;;;;;;;26.73;6.70;;;;;;;;;;5021793;28;20014;-70
2022/03/30 06:48:49;;;;;;;38.60;7.15;;;;;;;;;;5020300;28;20362;-70
2022/03/30 06:51:15;;;;;;;37.88;7.50;;;;;;;;;;5021889;28;20021;-70
2022/03/30 06:53:42;;;;;;;26.73;7.05;;;;;;;;;;5020434;28;20404;-70
2022/03/30 06:56:09;;;;;;;41.97;7.20;;;;;;;;;;5021799;28;20596;-71
2022/03/30 06:58:35;;;;;;;42.72;7.90;;;;;;;;;;5020229;28;20032;-70
2022/03/30 07:01:01;;;;;;;37.17;7.00;;;;;;;;;;5022072;28;20095;-70
2022/03/30 07:03:28;;;;;;;40.08;7.82;;;;;;;;;;5025204;28;20033;-70
2022/03/30 07:05:57;;;;;;;28.63;7.65;;;;;;;;;;5024614;28;20064;-70
2022/03/30 07:11:08;;;;;;;37.67;7.80;;;;;;;;;;5023894;28;20040;-70
2022/03/30 07:13:35;;;;;;;35.85;7.35;;;;;;;;;;5025006;28;20029;-70
2022/03/30 07:16:02;;;;;;;40.75;7.47;;;;;;;;;;5024691;28;20037;-70
2022/03/30 07:18:28;;;;;;;37.80;8.05;;;;;;;;;;5023049;28;20025;-70
2022/03/30 07:20:54;;;;;;;45.30;9.35;;;;;;;;;;5024605;28;20025;-70
2022/03/30 07:23:23;;;;;;;48.33;8.27;;;;;;;;;;5024933;28;20029;-70
2022/03/30 07:25:49;;;;;;;59.05;10.15;;;;;;;;;;5024591;28;20029;-70
2022/03/30 07:28:18;;;;;;;56.05;10.55;;;;;;;;;;5024373;28;20025;-70
2022/03/30 07:30:45;;;;;;;61.35;8.20;;;;;;;;;;5023512;28;20053;-70
2022/03/30 07:33:11;;;;;;;65.25;9.85;;;;;;;;;;5024666;28;20064;-70
2022/03/30 07:35:39;;;;;;;49.40;9.63;;;;;;;;;;5025202;28;20021;-69
2022/03/30 07:38:05;;;;;;;50.17;8.88;;;;;;;;;;5024210;28;20025;-70
2022/03/30 07:40:32;;;;;;;55.28;8.77;;;;;;;;;;5023045;28;20029;-70
2022/03/30 07:42:59;;;;;;;54.05;10.05;;;;;;;;;;5024372;28;20028;-70
2022/03/30 07:45:26;;;;;;;68.78;8.95;;;;;;;;;;5025084;28;20029;-70
2022/03/30 07:47:52;;;;;;;57.90;9.70;;;;;;;;;;5024574;28;20118;-70
2022/03/30 07:50:18;;;;;;;69.47;11.40;;;;;;;;;;5024359;28;20052;-70
2022/03/30 07:52:45;;;;;;;55.00;9.88;;;;;;;;;;5022490;28;20023;-70
2022/03/30 07:55:12;;;;;;;56.55;8.85;;;;;;;;;;5024604;28;20092;-70
2022/03/30 07:57:39;;;;;;;52.75;9.07;;;;;;;;;;5024313;28;20029;-70
2022/03/30 08:00:08;;;;;;;48.35;7.97;;;;;;;;;;5023636;28;20025;-70
2022/03/30 08:02:34;;;;;;;54.70;9.23;;;;;;;;;;5022471;28;20026;-70
2022/03/30 08:05:01;;;;;;;35.22;7.50;;;;;;;;;;5022792;28;20669;-70
2022/03/30 08:07:28;;;;;;;33.33;7.30;;;;;;;;;;5024413;28;20030;-70
2022/03/30 08:09:55;;;;;;;45.47;6.75;;;;;;;;;;5023945;28;20065;-70
2022/03/30 08:12:21;;;;;;;40.63;7.82;;;;;;;;;;5023770;28;20052;-71
2022/03/30 08:14:48;;;;;;;40.47;6.80;;;;;;;;;;5022366;28;20095;-70
2022/03/30 08:17:15;;;;;;;53.00;9.95;;;;;;;;;;5023643;28;20021;-71
2022/03/30 08:19:41;;;;;;;54.42;9.75;;;;;;;;;;5020941;28;20549;-71
2022/03/30 08:22:25;;;;;;;70.18;10.23;;;;;;;;;;5023408;28;20385;-71
2022/03/30 08:24:52;;;;;;;76.97;13.13;;;;;;;;;;5022226;28;20034;-70
2022/03/30 08:27:21;;;;;;;83.13;14.50;;;;;;;;;;5023336;28;20581;-70
2022/03/30 08:29:48;;;;;;;80.50;12.90;;;;;;;;;;5023942;28;20547;-71
2022/03/30 08:32:14;;;;;;;85.50;14.00;;;;;;;;;;5023741;28;20076;-70
2022/03/30 08:34:41;;;;;;;74.57;11.23;;;;;;;;;;5023590;28;20578;-70
2022/03/30 08:37:07;;;;;;;75.43;12.40;;;;;;;;;;5023394;28;20055;-71
2022/03/30 08:39:35;;;;;;;68.45;10.82;;;;;;;;;;5022106;28;20413;-70
2022/03/30 08:42:02;;;;;;;55.70;10.95;;;;;;;;;;5023186;28;20022;-71
2022/03/30 08:44:29;;;;;;;60.67;8.95;;;;;;;;;;5023844;28;20025;-70
2022/03/30 08:46:55;;;;;;;46.97;9.18;;;;;;;;;;5023348;28;20033;-70
2022/03/30 08:49:21;;;;;;;42.08;7.35;;;;;;;;;;5021667;28;20055;-71
2022/03/30 08:51:49;;;;;;;45.63;7.82;;;;;;;;;;5023374;28;20040;-70
2022/03/30 08:54:16;;;;;;;32.58;5.95;;;;;;;;;;5023572;28;20033;-70
2022/03/30 08:56:42;;;;;;;35.35;7.07;;;;;;;;;;5021612;28;20018;-70
2022/03/30 08:59:09;;;;;;;42.92;8.25;;;;;;;;;;5023191;28;20064;-70
2022/03/30 09:01:38;;;;;;;35.13;6.57;;;;;;;;;;5023292;28;20025;-70
2022/03/30 09:04:08;;;;;;;40.40;6.97;;;;;;;;;;5023064;28;20041;-70
2022/03/30 09:06:35;;;;;;;40.78;7.38;;;;;;;;;;5022763;28;20053;-70
2022/03/30 09:09:02;;;;;;;46.45;8.30;;;;;;;;;;5022690;28;20037;-70
2022/03/30 09:11:30;;;;;;;37.08;7.22;;;;;;;;;;5021476;28;20032;-70
2022/03/30 09:14:00;;;;;;;54.72;7.90;;;;;;;;;;5023098;28;20025;-71
2022/03/30 09:16:36;;;;;;;39.70;8.10;;;;;;;;;;5023006;28;20053;-70
2022/03/30 09:19:03;;;;;;;50.15;7.68;;;;;;;;;;5022689;28;20040;-70
2022/03/30 09:21:48;;;;;;;51.53;9.02;;;;;;;;;;5021480;28;20061;-70
2022/03/30 09:24:16;;;;;;;31.88;7.05;;;;;;;;;;5022085;28;20022;-70
2022/03/30 09:26:42;;;;;;;38.42;8.25;;;;;;;;;;5022972;28;20021;-70
2022/03/30 09:29:09;;;;;;;45.38;8.52;;;;;;;;;;5022336;28;20060;-74
2022/03/30 09:31:36;;;;;;;44.33;8.18;;;;;;;;;;5021514;28;20819;-70
2022/03/30 09:34:03;;;;;;;50.42;7.60;;;;;;;;;;5023150;28;20021;-70
2022/03/30 09:36:30;;;;;;;50.20;7.88;;;;;;;;;;5022673;28;20071;-70
2022/03/30 09:38:57;;;;;;;55.30;9.57;;;;;;;;;;5022542;28;20057;-70
2022/03/30 09:41:23;;;;;;;43.30;7.95;;;;;;;;;;5022165;28;20409;-71
2022/03/30 09:43:49;;;;;;;37.08;7.63;;;;;;;;;;5021077;28;20021;-71
2022/03/30 09:46:16;;;;;;;59.90;8.27;;;;;;;;;;5021914;28;20028;-70
2022/03/30 09:48:53;;;;;;;37.63;7.97;;;;;;;;;;5022085;28;20091;-70
2022/03/30 09:51:24;;;;;;;41.42;9.02;;;;;;;;;;5022359;28;20025;-70
2022/03/30 09:53:50;;;;;;;47.35;9.32;;;;;;;;;;5022040;28;20057;-70
2022/03/30 09:56:20;;;;;;;41.65;7.97;;;;;;;;;;5022117;28;20045;-70
2022/03/30 09:58:47;;;;;;;46.30;7.78;;;;;;;;;;5021586;28;20028;-70
2022/03/30 10:01:17;;;;;;;31.65;7.82;;;;;;;;;;5022647;28;20036;-70
2022/03/30 10:03:46;;;;;;;37.92;8.57;;;;;;;;;;5022167;28;20698;-72
2022/03/30 10:06:13;;;;;;;50.65;8.27;;;;;;;;;;5021127;28;20071;-70
2022/03/30 10:08:40;;;;;;;42.22;7.47;;;;;;;;;;5022661;28;20037;-71
2022/03/30 10:11:06;;;;;;;42.67;9.18;;;;;;;;;;5022521;28;20105;-70
2022/03/30 10:13:33;;;;;;;39.58;8.82;;;;;;;;;;5022543;28;20151;-71
2022/03/30 10:15:59;;;;;;;52.53;8.43;;;;;;;;;;5020342;28;20116;-70
2022/03/30 10:18:25;;;;;;;43.55;9.45;;;;;;;;;;5021361;28;20037;-70
2022/03/30 10:21:02;;;;;;;39.83;8.60;;;;;;;;;;5022208;28;20036;-70
2022/03/30 10:23:37;;;;;;;48.83;8.65;;;;;;;;;;5022456;28;20026;-71
2022/03/30 10:26:24;;;;;;;45.15;8.63;;;;;;;;;;5022052;28;20032;-70
2022/03/30 10:29:01;;;;;;;63.58;10.07;;;;;;;;;;5022094;28;20034;-70
2022/03/30 10:31:30;;;;;;;66.20;10.50;;;;;;;;;;5020817;28;20083;-71
2022/03/30 10:33:56;;;;;;;40.72;9.40;;;;;;;;;;5022427;28;20022;-71
2022/03/30 10:36:26;;;;;;;53.47;9.52;;;;;;;;;;5024371;28;20022;-71
2022/03/30 10:39:11;;;;;;;47.85;9.10;;;;;;;;;;5025671;28;20036;-70
2022/03/30 10:41:56;;;;;;;55.45;11.63;;;;;;;;;;5025940;28;20157;-71
2022/03/30 10:44:44;;;;;;;62.35;11.23;;;;;;;;;;5023147;28;20418;-71
2022/03/30 10:47:13;;;;;;;67.22;10.85;;;;;;;;;;5026002;28;20104;-71
2022/03/30 10:49:44;;;;;;;49.13;10.25;;;;;;;;;;5025558;28;20044;-70
2022/03/30 10:52:25;;;;;;;51.38;10.85;;;;;;;;;;5023977;28;20087;-70
2022/03/30 10:54:55;;;;;;;45.08;9.70;;;;;;;;;;5025789;28;20021;-70
2022/03/30 10:58:01;;;;;;;57.85;9.10;;;;;;;;;;5025195;28;20045;-70
2022/03/30 11:00:36;;;;;;;41.90;7.03;;;;;;;;;;4942975;29;20035;-70
2022/03/30 11:03:21;;;;;;;43.65;7.90;;;;;;;;;;4944244;29;20611;-70
2022/03/30 11:06:00;;;;;;;52.92;8.48;;;;;;;;;;4998063;28;20581;-71
2022/03/30 11:08:34;;;;;;;38.55;8.30;;;;;;;;;;5023805;28;20061;-70
2022/03/30 11:11:19;;;;;;;41.45;7.72;;;;;;;;;;5025528;28;20036;-70
2022/03/30 11:13:46;;;;;;;40.00;7.28;;;;;;;;;;5025108;28;20025;-70
2022/03/30 11:16:12;;;;;;;56.17;10.18;;;;;;;;;;5024734;28;20036;-70
2022/03/30 11:18:58;;;;;;;61.47;9.65;;;;;;;;;;5025377;28;20410;-70
2022/03/30 11:21:25;;;;;;;40.20;9.23;;;;;;;;;;5023715;28;20124;-70
2022/03/30 11:23:58;;;;;;;49.63;8.48;;;;;;;;;;5025092;28;20842;-70
2022/03/30 11:26:41;;;;;;;46.85;8.40;;;;;;;;;;5024789;28;20480;-70
2022/03/30 11:29:27;;;;;;;51.50;8.32;;;;;;;;;;5025166;28;20045;-70
2022/03/30 11:31:53;;;;;;;48.30;7.78;;;;;;;;;;5025226;28;20076;-70
2022/03/30 11:34:28;;;;;;;41.63;6.72;;;;;;;;;;5023791;28;20025;-70
2022/03/30 11:36:54;;;;;;;39.05;7.10;;;;;;;;;;5024574;28;20064;-70
2022/03/30 11:39:28;;;;;;;42.45;7.82;;;;;;;;;;5024578;28;20450;-70
2022/03/30 11:41:57;;;;;;;42.70;8.07;;;;;;;;;;5025018;28;20644;-70
2022/03/30 11:47:17;;;;;;;48.13;7.25;;;;;;;;;;5023854;28;20535;-70
2022/03/30 11:49:53;;;;;;;46.50;8.18;;;;;;;;;;5024246;28;20042;-70
2022/03/30 11:52:22;;;;;;;32.80;6.85;;;;;;;;;;5024134;28;20071;-70
2022/03/30 11:54:51;;;;;;;39.05;7.32;;;;;;;;;;5023274;28;20182;-70
2022/03/30 11:57:18;;;;;;;43.33;7.72;;;;;;;;;;5024537;28;20109;-71
2022/03/30 12:00:08;;;;;;;36.50;6.68;;;;;;;;;;5024260;28;20032;-70
2022/03/30 12:02:35;;;;;;;48.65;7.10;;;;;;;;;;5024581;28;20026;-70
2022/03/30 12:05:01;;;;;;;42.30;8.68;;;;;;;;;;5022633;28;20090;-70
2022/03/30 12:07:27;;;;;;;47.20;7.20;;;;;;;;;;5024177;28;20040;-71
2022/03/30 12:09:54;;;;;;;45.05;6.65;;;;;;;;;;5024249;28;20037;-71
2022/03/30 12:12:27;;;;;;;37.78;7.40;;;;;;;;;;5024195;28;20025;-70
2022/03/30 12:14:57;;;;;;;45.97;8.13;;;;;;;;;;5024115;28;20029;-71
2022/03/30 12:17:24;;;;;;;41.97;7.28;;;;;;;;;;5023875;28;20017;-70
2022/03/30 12:19:51;;;;;;;38.80;7.40;;;;;;;;;;5022154;28;20112;-71
2022/03/30 12:22:18;;;;;;;39.08;6.82;;;;;;;;;;5023790;28;20105;-70
2022/03/30 12:24:44;;;;;;;45.40;8.50;;;;;;;;;;5023778;28;20033;-70
2022/03/30 12:27:11;;;;;;;46.60;8.50;;;;;;;;;;5023340;28;20063;-70
2022/03/30 12:29:38;;;;;;;38.88;8.43;;;;;;;;;;5022058;28;20048;-70
2022/03/30 12:32:04;;;;;;;39.63;8.20;;;;;;;;;;5023444;28;20043;-70
2022/03/30 12:34:33;;;;;;;45.53;8.68;;;;;;;;;;5023767;28;20033;-70
2022/03/30 12:37:01;;;;;;;35.75;6.85;;;;;;;;;;5021742;28;20026;-70
2022/03/30 12:39:32;;;;;;;31.23;8.05;;;;;;;;;;5023614;28;20026;-70
2022/03/30 12:42:03;;;;;;;38.75;8.55;;;;;;;;;;5023871;28;20054;-70
2022/03/30 12:44:30;;;;;;;45.40;9.45;;;;;;;;;;5023548;28;20417;-70
2022/03/30 12:46:58;;;;;;;40.15;7.97;;;;;;;;;;5023316;28;20167;-70
2022/03/30 12:49:34;;;;;;;50.67;8.20;;;;;;;;;;5022190;28;20037;-70
2022/03/30 12:52:07;;;;;;;34.85;8.77;;;;;;;;;;5022145;28;20021;-70
2022/03/30 12:54:34;;;;;;;38.97;8.60;;;;;;;;;;5023671;28;20021;-70
2022/03/30 12:57:00;;;;;;;34.92;7.30;;;;;;;;;;5023050;28;20033;-70
2022/03/30 12:59:26;;;;;;;36.72;7.85;;;;;;;;;;5022073;28;20632;-71
2022/03/30 13:01:52;;;;;;;40.10;8.60;;;;;;;;;;5022028;28;20078;-70
2022/03/30 13:04:18;;;;;;;26.42;7.47;;;;;;;;;;5023326;28;20032;-70
2022/03/30 13:07:03;;;;;;;30.17;7.80;;;;;;;;;;5023157;28;20065;-70
2022/03/30 13:09:29;;;;;;;35.03;8.30;;;;;;;;;;5022733;28;20103;-71
2022/03/30 13:11:57;;;;;;;53.42;8.70;;;;;;;;;;5022899;28;20496;-70
2022/03/30 13:14:24;;;;;;;44.33;10.75;;;;;;;;;;5021492;28;20117;-70
2022/03/30 13:16:58;;;;;;;43.05;11.38;;;;;;;;;;5022806;28;20025;-71
2022/03/30 13:19:25;;;;;;;35.53;9.73;;;;;;;;;;5023246;28;20025;-70
2022/03/30 13:21:52;;;;;;;47.50;11.10;;;;;;;;;;5023092;28;20037;-70
2022/03/30 13:24:21;;;;;;;52.40;10.43;;;;;;;;;;5022301;28;20036;-71
2022/03/30 13:26:51;;;;;;;34.35;8.20;;;;;;;;;;5022170;28;20018;-70
2022/03/30 13:29:18;;;;;;;32.00;7.63;;;;;;;;;;5022770;28;20041;-70
2022/03/30 13:31:46;;;;;;;33.08;8.20;;;;;;;;;;5022877;28;20021;-70
2022/03/30 13:34:14;;;;;;;39.10;9.82;;;;;;;;;;5022656;28;20051;-70
2022/03/30 13:36:41;;;;;;;39.08;8.60;;;;;;;;;;5022821;28;20029;-70
2022/03/30 13:39:08;;;;;;;44.35;9.98;;;;;;;;;;5021850;28;20049;-71
2022/03/30 13:41:34;;;;;;;39.08;9.57;;;;;;;;;;5023082;28;20106;-72
2022/03/30 13:44:00;;;;;;;30.88;8.25;;;;;;;;;;5022367;28;20600;-70
2022/03/30 13:46:27;;;;;;;36.90;8.57;;;;;;;;;;5021349;28;20026;-70
2022/03/30 13:48:53;;;;;;;29.17;8.57;;;;;;;;;;5022942;28;20509;-70
2022/03/30 13:51:20;;;;;;;43.25;9.05;;;;;;;;;;5022485;28;20025;-70
2022/03/30 13:53:46;;;;;;;35.95;9.45;;;;;;;;;;5022362;28;20025;-71
2022/03/30 13:56:13;;;;;;;33.55;9.65;;;;;;;;;;5020783;28;20033;-70
2022/03/30 13:58:40;;;;;;;34.20;9.57;;;;;;;;;;5022522;28;20108;-70
2022/03/30 14:01:07;;;;;;;47.80;9.93;;;;;;;;;;5022715;28;20052;-70
2022/03/30 14:03:34;;;;;;;37.90;8.77;;;;;;;;;;5022497;28;20490;-71
2022/03/30 14:06:01;;;;;;;30.25;8.90;;;;;;;;;;5022117;28;20048;-70
2022/03/30 14:08:27;;;;;;;28.52;7.88;;;;;;;;;;5022165;28;20038;-71
2022/03/30 14:10:54;;;;;;;40.78;8.90;;;;;;;;;;5022042;28;20037;-71
2022/03/30 14:13:21;;;;;;;33.15;8.82;;;;;;;;;;5026594;28;20372;-70
2022/03/30 14:15:48;;;;;;;42.80;10.98;;;;;;;;;;5026268;28;20033;-71
2022/03/30 14:18:15;;;;;;;45.17;11.15;;;;;;;;;;5026441;28;20043;-71
2022/03/30 14:20:41;;;;;;;50.40;9.75;;;;;;;;;;5026457;28;20021;-70
2022/03/30 14:23:08;;;;;;;54.15;11.40;;;;;;;;;;5024429;28;20029;-70
2022/03/30 14:25:34;;;;;;;36.08;10.40;;;;;;;;;;5026439;28;20021;-70
2022/03/30 14:28:01;;;;;;;33.90;9.02;;;;;;;;;;5026066;28;20526;-70
2022/03/30 14:30:28;;;;;;;37.72;8.68;;;;;;;;;;5026522;28;20038;-70
2022/03/30 14:32:54;;;;;;;43.92;9.75;;;;;;;;;;5026208;28;20026;-70
2022/03/30 14:35:20;;;;;;;33.22;8.05;;;;;;;;;;5008308;28;20061;-70
2022/03/30 14:37:46;;;;;;;32.65;9.27;;;;;;;;;;5024734;28;20057;-70